createdAt,value
2022-12-25T00:01:26.765Z,5.29
2022-12-25T00:03:57.591Z,5.24
2022-12-25T00:06:28.484Z,5.25
2022-12-25T00:08:57.536Z,5.15
2022-12-25T00:11:26.547Z,4.97
2022-12-25T00:13:55.659Z,4.87
2022-12-25T00:16:27.188Z,4.84
2022-12-25T00:18:58.885Z,4.64
2022-12-25T00:21:30.031Z,4.40
2022-12-25T00:24:00.231Z,4.58
2022-12-25T00:26:30.972Z,4.67
2022-12-25T00:29:00.253Z,4.62
2022-12-25T00:31:29.406Z,4.59
2022-12-25T00:33:58.979Z,4.56
2022-12-25T00:36:29.352Z,4.49
2022-12-25T00:38:58.357Z,4.44
2022-12-25T00:41:41.346Z,4.39
2022-12-25T00:44:12.467Z,4.50
2022-12-25T00:46:42.229Z,4.52
2022-12-25T00:49:11.960Z,4.55
2022-12-25T00:51:42.387Z,4.60
2022-12-25T00:54:11.817Z,4.63
2022-12-25T00:56:40.867Z,4.52
2022-12-25T00:59:09.941Z,4.54
2022-12-25T01:01:40.115Z,4.36
2022-12-25T01:04:09.777Z,4.16
2022-12-25T01:06:39.208Z,3.96
2022-12-25T01:09:27.634Z,3.82
2022-12-25T01:11:56.666Z,3.77
2022-12-25T01:14:25.726Z,3.83
2022-12-25T01:16:54.823Z,3.99
2022-12-25T01:19:23.863Z,3.92
2022-12-25T01:21:53.161Z,3.70
2022-12-25T01:24:23.544Z,3.77
2022-12-25T01:26:52.586Z,3.71
2022-12-25T01:29:21.651Z,3.92
2022-12-25T01:31:50.839Z,4.07
2022-12-25T01:34:19.924Z,4.13
2022-12-25T01:36:48.927Z,4.17
2022-12-25T01:39:17.923Z,3.99
2022-12-25T01:41:48.330Z,3.93
2022-12-25T01:44:54.906Z,3.89
2022-12-25T01:47:23.952Z,4.00
2022-12-25T01:49:53.024Z,3.95
2022-12-25T01:52:24.860Z,3.83
2022-12-25T01:54:58.179Z,3.85
2022-12-25T01:57:32.373Z,3.66
2022-12-25T02:00:02.866Z,3.43
2022-12-25T02:02:34.366Z,3.42
2022-12-25T02:05:08.896Z,3.25
2022-12-25T02:07:41.180Z,3.26
2022-12-25T02:10:12.203Z,3.48
2022-12-25T02:12:45.081Z,3.54
2022-12-25T02:15:17.807Z,3.63
2022-12-25T02:17:57.179Z,3.74
2022-12-25T02:20:48.034Z,3.78
2022-12-25T02:23:39.883Z,3.77
2022-12-25T02:26:19.198Z,3.70
2022-12-25T02:28:58.316Z,3.56
2022-12-25T02:31:36.782Z,3.26
2022-12-25T02:34:13.926Z,3.19
2022-12-25T02:36:50.961Z,3.18
2022-12-25T02:39:44.154Z,3.31
2022-12-25T02:42:17.590Z,3.50
2022-12-25T02:45:08.333Z,3.53
2022-12-25T02:47:57.067Z,3.57
2022-12-25T02:50:44.653Z,3.61
2022-12-25T02:53:31.655Z,3.62
2022-12-25T02:56:18.701Z,3.56
2022-12-25T02:59:06.846Z,3.45
2022-12-25T03:01:56.684Z,3.39
2022-12-25T03:04:45.808Z,3.45
2022-12-25T03:07:20.451Z,3.51
2022-12-25T03:10:12.049Z,3.52
2022-12-25T03:12:48.115Z,3.50
2022-12-25T03:15:35.925Z,3.50
2022-12-25T03:18:10.691Z,3.45
2022-12-25T03:20:57.739Z,3.43
2022-12-25T03:23:49.682Z,3.24
2022-12-25T03:26:37.449Z,3.15
2022-12-25T03:29:06.752Z,3.21
2022-12-25T03:31:46.250Z,3.23
2022-12-25T03:34:48.972Z,3.21
2022-12-25T03:37:49.639Z,3.16
2022-12-25T03:40:53.109Z,3.16
2022-12-25T03:43:47.816Z,3.15
2022-12-25T03:46:37.399Z,3.12
2022-12-25T03:49:31.408Z,3.08
2022-12-25T03:52:22.004Z,3.09
2022-12-25T03:55:10.044Z,3.14
2022-12-25T03:57:56.771Z,3.15
2022-12-25T04:00:43.203Z,3.21
2022-12-25T04:03:29.884Z,3.28
2022-12-25T04:06:27.802Z,3.30
2022-12-25T04:09:15.662Z,3.29
2022-12-25T04:12:03.185Z,3.31
2022-12-25T04:14:49.802Z,3.38
2022-12-25T04:17:36.152Z,3.42
2022-12-25T04:20:23.436Z,3.47
2022-12-25T04:23:10.217Z,3.50
2022-12-25T04:26:12.452Z,3.48
2022-12-25T04:28:59.094Z,3.54
2022-12-25T04:31:45.872Z,3.60
2022-12-25T04:34:32.963Z,3.61
2022-12-25T04:37:02.045Z,3.59
2022-12-25T04:39:31.082Z,3.60
2022-12-25T04:42:01.502Z,3.58
2022-12-25T04:44:30.519Z,3.55
2022-12-25T04:46:59.548Z,3.54
2022-12-25T04:49:28.651Z,3.50
2022-12-25T04:51:57.711Z,3.52
2022-12-25T04:54:26.752Z,3.54
2022-12-25T04:56:55.864Z,3.52
2022-12-25T04:59:26.425Z,3.55
2022-12-25T05:01:55.518Z,3.61
2022-12-25T05:04:24.686Z,3.70
2022-12-25T05:06:53.794Z,3.63
2022-12-25T05:09:22.888Z,3.64
2022-12-25T05:11:52.140Z,3.66
2022-12-25T05:14:21.215Z,3.63
2022-12-25T05:16:51.682Z,3.62
2022-12-25T05:19:20.704Z,3.64
2022-12-25T05:21:49.744Z,3.61
2022-12-25T05:24:18.792Z,3.60
2022-12-25T05:26:47.867Z,3.58
2022-12-25T05:29:16.920Z,3.57
2022-12-25T05:31:45.984Z,3.55
2022-12-25T05:34:16.387Z,3.54
2022-12-25T05:36:45.440Z,3.54
2022-12-25T05:39:14.425Z,3.55
2022-12-25T05:41:43.497Z,3.58
2022-12-25T05:44:12.523Z,3.58
2022-12-25T05:46:41.757Z,3.60
2022-12-25T05:49:10.859Z,3.61
2022-12-25T05:51:41.603Z,3.65
2022-12-25T05:54:10.634Z,3.67
2022-12-25T05:56:39.675Z,3.66
2022-12-25T05:59:08.745Z,3.68
2022-12-25T06:01:38.156Z,3.70
2022-12-25T06:04:12.386Z,3.71
2022-12-25T06:06:43.323Z,3.75
2022-12-25T06:09:14.247Z,3.72
2022-12-25T06:11:43.386Z,3.77
2022-12-25T06:14:13.971Z,3.78
2022-12-25T06:16:43.228Z,3.83
2022-12-25T06:19:12.317Z,3.86
2022-12-25T06:21:42.694Z,3.90
2022-12-25T06:24:16.257Z,3.93
2022-12-25T06:26:50.017Z,3.93
2022-12-25T06:29:19.086Z,3.91
2022-12-25T06:31:48.142Z,3.90
2022-12-25T06:34:17.454Z,3.89
2022-12-25T06:36:47.859Z,3.87
2022-12-25T06:39:17.149Z,3.86
2022-12-25T06:41:46.408Z,4.14
2022-12-25T06:44:15.450Z,3.92
2022-12-25T06:46:44.467Z,3.92
2022-12-25T06:49:13.485Z,5.99
2022-12-25T06:51:42.550Z,5.07
2022-12-25T06:54:12.920Z,4.89
2022-12-25T06:56:42.000Z,4.41
2022-12-25T06:59:11.911Z,4.55
2022-12-25T07:01:47.088Z,4.59
2022-12-25T07:04:20.581Z,4.73
2022-12-25T07:06:49.605Z,4.76
2022-12-25T07:09:20.017Z,4.73
2022-12-25T07:11:49.017Z,4.69
2022-12-25T07:14:23.890Z,4.79
2022-12-25T07:16:53.621Z,4.78
2022-12-25T07:19:22.774Z,4.80
2022-12-25T07:21:51.986Z,4.84
2022-12-25T07:24:23.157Z,4.85
2022-12-25T07:26:53.100Z,4.87
2022-12-25T07:29:22.176Z,4.86
2022-12-25T07:31:51.361Z,4.87
2022-12-25T07:34:20.531Z,4.89
2022-12-25T07:36:49.602Z,4.83
2022-12-25T07:39:18.644Z,4.81
2022-12-25T07:41:49.163Z,4.78
2022-12-25T07:44:18.399Z,4.81
2022-12-25T07:46:47.655Z,4.81
2022-12-25T07:49:16.689Z,4.84
2022-12-25T07:51:45.706Z,4.82
2022-12-25T07:54:14.730Z,4.81
2022-12-25T07:56:43.808Z,4.83
2022-12-25T07:59:14.168Z,4.89
2022-12-25T08:01:43.287Z,4.89
2022-12-25T08:04:12.575Z,4.91
2022-12-25T08:06:41.617Z,4.92
2022-12-25T08:09:13.102Z,4.96
2022-12-25T08:11:45.812Z,5.01
2022-12-25T08:14:16.769Z,4.96
2022-12-25T08:16:46.924Z,5.00
2022-12-25T08:19:16.061Z,5.10
2022-12-25T08:21:45.173Z,5.17
2022-12-25T08:24:14.206Z,5.12
2022-12-25T08:26:43.199Z,5.14
2022-12-25T08:29:12.228Z,5.20
2022-12-25T08:31:46.416Z,5.14
2022-12-25T08:34:15.990Z,5.16
2022-12-25T08:36:45.023Z,5.24
2022-12-25T08:39:14.103Z,5.22
2022-12-25T08:41:43.206Z,5.28
2022-12-25T08:44:15.229Z,5.36
2022-12-25T08:46:45.761Z,5.40
2022-12-25T08:49:14.874Z,5.42
2022-12-25T08:51:45.964Z,5.47
2022-12-25T08:54:15.006Z,5.54
2022-12-25T08:56:44.019Z,5.54
2022-12-25T08:59:13.111Z,5.55
2022-12-25T09:01:42.285Z,5.61
2022-12-25T09:04:12.776Z,5.65
2022-12-25T09:06:41.876Z,5.63
2022-12-25T09:09:10.941Z,5.66
2022-12-25T09:11:40.001Z,5.73
2022-12-25T09:14:09.610Z,5.79
2022-12-25T09:16:38.707Z,5.80
2022-12-25T09:19:07.750Z,5.83
2022-12-25T09:21:38.191Z,5.80
2022-12-25T09:24:07.723Z,5.83
2022-12-25T09:26:37.640Z,5.83
2022-12-25T09:29:06.724Z,5.90
2022-12-25T09:31:35.803Z,5.93
2022-12-25T09:34:04.873Z,5.96
2022-12-25T09:36:33.939Z,5.96
2022-12-25T09:39:04.710Z,6.05
2022-12-25T09:41:39.113Z,6.05
2022-12-25T09:44:12.557Z,6.09
2022-12-25T09:46:44.568Z,6.12
2022-12-25T09:49:19.950Z,6.09
2022-12-25T09:51:53.236Z,-141.04
2022-12-25T09:54:33.702Z,-141.04
2022-12-25T09:57:03.152Z,-141.04
2022-12-25T09:59:32.191Z,-141.04
2022-12-25T10:02:36.808Z,-141.04
2022-12-25T10:05:34.016Z,-141.04
2022-12-25T10:08:12.943Z,-141.04
2022-12-25T10:10:53.655Z,-141.04
2022-12-25T10:13:38.010Z,-141.04
2022-12-25T10:16:19.459Z,-141.04
2022-12-25T10:19:11.645Z,-141.04
2022-12-25T10:21:41.712Z,-141.04
2022-12-25T10:24:24.554Z,-141.04
2022-12-25T10:26:57.227Z,-141.04
2022-12-25T10:29:31.565Z,-141.04
2022-12-25T10:32:00.823Z,-141.04
2022-12-25T10:34:29.859Z,-141.04
2022-12-25T10:37:01.970Z,-141.04
2022-12-25T10:39:31.078Z,-141.04
2022-12-25T10:42:31.812Z,-141.04
2022-12-25T10:45:02.942Z,-141.04
2022-12-25T10:47:34.165Z,-141.04
2022-12-25T10:50:11.302Z,-141.04
2022-12-25T10:52:55.104Z,-141.04
2022-12-25T10:55:28.700Z,-141.04
2022-12-25T10:58:02.042Z,-141.04
2022-12-25T11:00:33.504Z,-141.04
2022-12-25T11:03:02.865Z,-141.04
2022-12-25T11:05:33.974Z,-141.04
2022-12-25T11:08:04.589Z,-141.04
2022-12-25T11:10:36.667Z,-141.04
2022-12-25T11:13:18.356Z,-141.04
2022-12-25T11:15:49.479Z,-141.04
2022-12-25T11:18:21.491Z,-141.04
2022-12-25T11:20:52.252Z,-141.04
2022-12-25T11:23:22.808Z,-141.04
2022-12-25T11:25:59.504Z,-141.04
2022-12-25T11:28:31.961Z,-141.04
2022-12-25T11:31:03.947Z,-141.04
2022-12-25T11:33:38.357Z,-141.04
2022-12-25T11:36:18.249Z,-141.04
2022-12-25T11:38:47.428Z,-141.04
2022-12-25T11:41:20.692Z,-141.04
2022-12-25T11:43:57.968Z,-141.04
2022-12-25T11:46:32.434Z,-141.04
2022-12-25T11:49:06.696Z,-141.04
2022-12-25T11:51:40.544Z,-141.04
2022-12-25T11:54:18.928Z,-141.04
2022-12-25T11:56:48.184Z,-141.04
2022-12-25T11:59:25.884Z,-141.04
2022-12-25T12:01:59.139Z,-141.04
2022-12-25T12:04:38.506Z,-141.04
2022-12-25T12:07:20.072Z,-141.04
2022-12-25T12:10:04.059Z,-141.04
2022-12-25T12:12:48.283Z,-141.04
2022-12-25T12:15:28.590Z,-141.04
2022-12-25T12:18:09.407Z,-141.04
2022-12-25T12:20:38.741Z,-141.04
2022-12-25T12:23:17.496Z,-141.04
2022-12-25T12:25:46.682Z,-141.04
2022-12-25T12:28:23.682Z,-141.04
2022-12-25T12:31:05.858Z,-141.04
2022-12-25T12:33:38.719Z,-141.04
2022-12-25T12:36:12.256Z,-141.04
2022-12-25T12:38:43.550Z,-141.04
2022-12-25T12:41:14.854Z,-141.04
2022-12-25T12:43:48.198Z,-141.04
2022-12-25T12:46:28.020Z,-141.04
2022-12-25T12:49:10.212Z,-141.04
2022-12-25T12:51:41.419Z,-141.04
2022-12-25T12:54:21.332Z,-141.04
2022-12-25T12:56:58.415Z,-141.04
2022-12-25T12:59:35.110Z,-141.04
2022-12-25T13:02:26.440Z,-141.04
2022-12-25T13:05:03.997Z,-141.04
2022-12-25T13:07:44.959Z,-141.04
2022-12-25T13:10:24.200Z,-141.04
2022-12-25T13:12:56.119Z,-141.04
2022-12-25T13:15:28.791Z,-141.04
2022-12-25T13:18:03.802Z,-141.04
2022-12-25T13:20:41.188Z,-141.04
2022-12-25T13:23:27.786Z,-141.04
2022-12-25T13:25:58.598Z,-141.04
2022-12-25T13:28:29.532Z,-141.04
2022-12-25T13:31:07.712Z,-141.04
2022-12-25T13:33:39.503Z,-141.04
2022-12-25T13:36:12.736Z,-141.04
2022-12-25T13:38:46.596Z,-141.04
2022-12-25T13:41:37.979Z,-141.04
2022-12-25T13:44:18.905Z,-141.04
2022-12-25T13:46:48.154Z,-141.04
2022-12-25T13:49:20.919Z,-141.04
2022-12-25T13:51:50.635Z,-141.04
2022-12-25T13:54:20.628Z,-141.04
2022-12-25T13:56:52.476Z,-141.04
2022-12-25T13:59:24.028Z,-141.04
2022-12-25T14:01:54.494Z,-141.04
2022-12-25T14:04:25.863Z,-141.04
2022-12-25T14:06:54.967Z,-141.04
2022-12-25T14:09:24.357Z,-141.04
2022-12-25T14:11:54.478Z,-141.04
2022-12-25T14:14:26.087Z,-141.04
2022-12-25T14:16:59.754Z,-141.04
2022-12-25T14:19:31.997Z,-141.04
2022-12-25T14:22:03.816Z,-141.04
2022-12-25T14:24:34.929Z,-141.04
2022-12-25T14:27:06.904Z,-141.04
2022-12-25T14:29:39.931Z,-141.04
2022-12-25T14:32:14.807Z,-141.04
2022-12-25T14:34:47.205Z,-141.04
2022-12-25T14:37:20.158Z,-141.04
2022-12-25T14:39:57.499Z,-141.04
2022-12-25T14:42:28.719Z,-141.04
2022-12-25T14:45:00.747Z,-141.04
2022-12-25T14:47:30.400Z,-141.04
2022-12-25T14:50:01.014Z,-141.04
2022-12-25T14:52:34.947Z,-141.04
2022-12-25T14:55:08.175Z,-141.04
2022-12-25T14:57:41.530Z,-141.04
2022-12-25T15:00:23.771Z,-141.04
2022-12-25T15:02:55.371Z,-141.04
2022-12-25T15:05:32.163Z,-141.04
2022-12-25T15:08:23.105Z,-141.04
2022-12-25T15:11:02.230Z,-141.04
2022-12-25T15:13:32.126Z,-141.04
2022-12-25T15:16:10.223Z,-141.04
2022-12-25T15:18:42.016Z,-141.04
2022-12-25T15:21:17.754Z,-141.04
2022-12-25T15:23:47.119Z,-141.04
2022-12-25T15:26:17.043Z,-141.04
2022-12-25T15:28:46.127Z,-141.04
2022-12-25T15:31:25.048Z,-141.04
2022-12-25T15:33:55.699Z,-141.04
2022-12-25T15:36:26.758Z,-141.04
2022-12-25T15:38:55.836Z,-141.04
2022-12-25T15:41:45.344Z,-141.04
2022-12-25T15:44:15.251Z,-141.04
2022-12-25T15:46:45.858Z,-141.04
2022-12-25T15:49:15.917Z,-141.04
2022-12-25T15:51:47.059Z,-141.04
2022-12-25T15:54:16.403Z,-141.04
2022-12-25T15:56:48.728Z,-141.04
2022-12-25T15:59:19.471Z,-141.04
2022-12-25T16:01:51.002Z,-141.04
2022-12-25T16:04:21.120Z,-141.04
2022-12-25T16:06:51.914Z,-141.04
2022-12-25T16:09:21.878Z,-141.04
2022-12-25T16:11:51.421Z,-141.04
2022-12-25T16:14:21.760Z,-141.04
2022-12-25T16:16:50.838Z,-141.04
2022-12-25T16:19:19.862Z,-141.04
2022-12-25T16:21:50.392Z,-141.04
2022-12-25T16:24:19.546Z,-141.04
2022-12-25T16:26:48.779Z,-141.04
2022-12-25T16:29:18.105Z,-141.04
2022-12-25T16:31:47.245Z,-141.04
2022-12-25T16:34:16.381Z,-141.04
2022-12-25T16:36:46.308Z,-141.04
2022-12-25T16:39:16.655Z,-141.04
2022-12-25T16:41:45.917Z,-141.04
2022-12-25T16:44:15.414Z,-141.04
2022-12-25T16:46:44.640Z,-141.04
2022-12-25T16:49:13.732Z,-141.04
2022-12-25T16:51:42.818Z,-141.04
2022-12-25T16:54:11.970Z,-141.04
2022-12-25T16:56:42.651Z,-141.04
2022-12-25T16:59:12.051Z,-141.04
2022-12-25T17:01:43.209Z,-141.04
2022-12-25T17:04:12.627Z,-141.04
2022-12-25T17:06:41.890Z,-141.04
2022-12-25T17:09:10.991Z,-141.04
2022-12-25T17:11:41.514Z,-141.04
2022-12-25T17:14:12.260Z,-141.04
2022-12-25T17:16:41.492Z,-141.04
2022-12-25T17:19:18.693Z,-141.04
2022-12-25T17:21:48.569Z,-141.04
2022-12-25T17:24:18.212Z,-141.04
2022-12-25T17:26:49.060Z,-141.04
2022-12-25T17:29:21.948Z,-141.04
2022-12-25T17:31:52.131Z,-141.04
2022-12-25T17:34:21.341Z,-141.04
2022-12-25T17:36:50.399Z,-141.04
2022-12-25T17:39:19.772Z,-141.04
2022-12-25T17:41:52.286Z,-141.04
2022-12-25T17:44:22.672Z,-141.04
2022-12-25T17:46:52.987Z,-141.04
2022-12-25T17:49:23.513Z,-141.04
2022-12-25T17:51:54.499Z,-141.04
2022-12-25T17:54:23.573Z,-141.04
2022-12-25T17:56:53.967Z,-141.04
2022-12-25T17:59:28.369Z,-141.04
2022-12-25T18:01:57.666Z,-141.04
2022-12-25T18:04:26.813Z,-141.04
2022-12-25T18:06:55.910Z,-141.04
2022-12-25T18:09:25.183Z,-141.04
2022-12-25T18:11:55.890Z,-141.04
2022-12-25T18:14:24.965Z,-141.04
2022-12-25T18:16:54.063Z,-141.04
2022-12-25T18:19:23.107Z,-141.04
2022-12-25T18:21:52.288Z,-141.04
2022-12-25T18:24:21.362Z,-141.04
2022-12-25T18:26:50.471Z,-141.04
2022-12-25T18:29:20.912Z,-141.04
2022-12-25T18:31:50.091Z,-141.04
2022-12-25T18:34:19.176Z,-141.04
2022-12-25T18:36:48.186Z,-141.04
2022-12-25T18:39:17.275Z,-141.04
2022-12-25T18:42:08.944Z,-141.04
2022-12-25T18:44:39.527Z,-141.04
2022-12-25T18:47:08.646Z,-141.04
2022-12-25T18:49:37.793Z,-141.04
2022-12-25T18:52:48.202Z,-141.04
2022-12-25T18:54:56.921Z,-141.04
2022-12-25T18:57:26.439Z,-141.04
2022-12-25T18:59:56.829Z,-141.04
2022-12-25T19:02:25.999Z,-141.04
2022-12-25T19:04:55.473Z,-141.04
2022-12-25T19:07:24.813Z,-141.04
2022-12-25T19:09:53.917Z,-141.04
2022-12-25T19:12:23.069Z,-141.04
2022-12-25T19:14:52.796Z,-141.04
2022-12-25T19:17:27.986Z,-141.04
2022-12-25T19:20:00.674Z,-141.04
2022-12-25T19:22:30.236Z,-141.04
2022-12-25T19:24:59.253Z,-141.04
2022-12-25T19:27:28.320Z,-141.04
2022-12-25T19:29:57.386Z,-141.04
2022-12-25T19:32:28.863Z,-141.04
2022-12-25T19:34:57.952Z,-141.04
2022-12-25T19:37:26.993Z,-141.04
2022-12-25T19:39:56.032Z,-141.04
2022-12-25T19:42:25.215Z,-141.04
2022-12-25T19:44:55.804Z,-141.04
2022-12-25T19:47:25.038Z,-141.04
2022-12-25T19:49:58.412Z,-141.04
2022-12-25T19:52:31.331Z,-141.04
2022-12-25T19:55:00.473Z,-141.04
2022-12-25T19:57:29.569Z,-141.04
2022-12-25T19:59:58.614Z,-141.04
2022-12-25T20:02:27.826Z,-141.04
2022-12-25T20:04:58.326Z,-141.04
2022-12-25T20:07:27.505Z,-141.04
2022-12-25T20:09:56.520Z,-141.04
2022-12-25T20:12:25.544Z,-141.04
2022-12-25T20:14:54.636Z,-141.04
2022-12-25T20:17:23.681Z,-141.04
2022-12-25T20:19:52.749Z,-141.04
2022-12-25T20:22:23.205Z,-141.04
2022-12-25T20:24:52.305Z,-141.04
2022-12-25T20:27:21.409Z,-141.04
2022-12-25T20:29:50.482Z,-141.04
2022-12-25T20:32:19.764Z,-141.04
2022-12-25T20:34:48.909Z,-141.04
2022-12-25T20:37:17.986Z,-141.04
2022-12-25T20:39:48.385Z,-141.04
2022-12-25T20:42:17.434Z,-141.04
2022-12-25T20:44:46.666Z,-141.04
2022-12-25T20:47:15.753Z,-141.04
2022-12-25T20:49:44.877Z,-141.04
2022-12-25T20:52:13.994Z,-141.04
2022-12-25T20:54:43.482Z,-141.04
2022-12-25T20:57:13.922Z,-141.04
2022-12-25T20:59:44.364Z,-141.04
2022-12-25T21:02:35.246Z,-141.04
2022-12-25T21:05:02.766Z,-141.04
2022-12-25T21:07:31.815Z,-141.04
2022-12-25T21:10:00.896Z,-141.04
2022-12-25T21:12:31.339Z,-141.04
2022-12-25T21:15:00.575Z,-141.04
2022-12-25T21:17:29.816Z,-141.04
2022-12-25T21:19:58.963Z,-141.04
2022-12-25T21:22:28.120Z,-141.04
2022-12-25T21:24:57.447Z,-141.04
2022-12-25T21:27:26.560Z,-141.04
2022-12-25T21:29:57.021Z,-141.04
2022-12-25T21:32:43.624Z,-141.04
2022-12-25T21:35:12.921Z,-141.04
2022-12-25T21:37:42.098Z,-141.04
2022-12-25T21:40:16.363Z,-141.04
2022-12-25T21:42:45.748Z,-141.04
2022-12-25T21:45:16.393Z,-141.04
2022-12-25T21:48:02.596Z,-141.04
2022-12-25T21:50:49.950Z,-141.04
2022-12-25T21:53:20.320Z,-141.04
2022-12-25T21:55:59.173Z,-141.04
2022-12-25T21:58:28.304Z,-141.04
2022-12-25T22:01:03.290Z,-141.04
2022-12-25T22:03:32.416Z,-141.04
2022-12-25T22:06:21.668Z,-141.04
2022-12-25T22:08:51.044Z,-141.04
2022-12-25T22:11:37.920Z,-141.04
2022-12-25T22:14:52.874Z,-141.04
2022-12-25T22:17:33.636Z,-141.04
2022-12-25T22:20:02.992Z,-141.04
2022-12-25T22:22:32.702Z,-141.04
2022-12-25T22:25:03.732Z,-141.04
2022-12-25T22:27:34.579Z,-141.04
2022-12-25T22:30:03.850Z,-141.04
2022-12-25T22:32:34.424Z,-141.04
2022-12-25T22:35:03.731Z,-141.04
2022-12-25T22:37:32.828Z,-141.04
2022-12-25T22:40:02.444Z,-141.04
2022-12-25T22:42:31.526Z,-141.04
2022-12-25T22:45:00.584Z,-141.04
2022-12-25T22:47:29.684Z,-141.04
2022-12-25T22:50:00.146Z,-141.04
2022-12-25T22:52:29.207Z,-141.04
2022-12-25T22:54:58.255Z,-141.04
2022-12-25T22:57:27.346Z,-141.04
2022-12-25T22:59:56.437Z,-141.04
2022-12-25T23:02:25.649Z,-141.04
2022-12-25T23:04:55.362Z,-141.04
2022-12-25T23:07:25.740Z,-141.04
2022-12-25T23:09:54.769Z,-141.04
2022-12-25T23:12:41.443Z,-141.04
2022-12-25T23:15:11.207Z,-141.04
2022-12-25T23:17:57.832Z,-141.04
2022-12-25T23:20:44.324Z,-141.04
2022-12-25T23:23:34.819Z,-141.04
2022-12-25T23:26:10.712Z,-141.04
2022-12-25T23:28:59.811Z,-141.04
2022-12-25T23:31:32.736Z,-141.04
2022-12-25T23:34:02.486Z,-141.04
2022-12-25T23:36:31.496Z,-141.04
2022-12-25T23:39:08.989Z,-141.04
2022-12-25T23:41:40.063Z,-141.04
2022-12-25T23:44:09.764Z,-141.04
2022-12-25T23:46:39.405Z,-141.04
2022-12-25T23:49:09.577Z,-141.04
2022-12-25T23:51:39.725Z,-141.04
2022-12-25T23:54:11.024Z,-141.04
2022-12-25T23:56:40.674Z,-141.04
2022-12-25T23:59:10.433Z,-141.04
